KACP

Allen Parish Airport

Oakdale, Louisiana, USA
METAR KACP 222115Z AUTO 00000KT 10SM CLR 18/10 A3014 RMK AO2 T01770103
Observed Flight Rules
Oct-22 @ 21:15 UTC (28 minutes ago) Visual Flight Rules
Visibility Clouds
10 miles
  • Clear skies
Temperatures Readings
Current 18°C / 64°F
Dewpoint 10°C / 50°F
Humidity 60%
Altimeter 30.14" Hg
Pressure 1021 hPa
Elevation 33
METAR KACP 222115Z AUTO 00000KT 10SM CLR 18/10 A3014 RMK AO2 T01770103
Observed Flight Rules
Oct-22 @ 21:15 UTC
(28 minutes ago)
VFR
Clouds
  • Clear skies
Temperature Dewpoint
18°C / 64°F 10°C / 50°F
Humidity Altimeter Pressure
60% 30.14" Hg 1021 hPa